createdAt,value
2022-12-08T00:01:34.697Z,-0.52
2022-12-08T00:04:04.327Z,-0.49
2022-12-08T00:06:57.920Z,-0.47
2022-12-08T00:09:38.983Z,-0.47
2022-12-08T00:12:16.734Z,-0.44
2022-12-08T00:14:47.440Z,-0.41
2022-12-08T00:17:17.118Z,-0.45
2022-12-08T00:19:45.513Z,-0.51
2022-12-08T00:22:14.839Z,-0.62
2022-12-08T00:24:46.405Z,-0.63
2022-12-08T00:27:16.088Z,-0.61
2022-12-08T00:29:45.544Z,-0.64
2022-12-08T00:32:13.538Z,-0.67
2022-12-08T00:34:41.290Z,-0.71
2022-12-08T00:37:08.991Z,-0.71
2022-12-08T00:39:37.050Z,-0.68
2022-12-08T00:42:14.352Z,-0.66
2022-12-08T00:44:44.836Z,-0.69
2022-12-08T00:47:13.589Z,-0.68
2022-12-08T00:49:42.242Z,-0.65
2022-12-08T00:52:10.088Z,-0.64
2022-12-08T00:54:38.203Z,-0.66
2022-12-08T00:57:06.251Z,-0.65
2022-12-08T00:59:33.994Z,-0.67
2022-12-08T01:02:01.719Z,-0.69
2022-12-08T01:04:29.517Z,-0.75
2022-12-08T01:06:57.312Z,-0.76
2022-12-08T01:09:25.085Z,-0.74
2022-12-08T01:11:53.088Z,-0.69
2022-12-08T01:14:21.128Z,-0.75
2022-12-08T01:16:48.908Z,-0.76
2022-12-08T01:19:17.956Z,-0.76
2022-12-08T01:21:46.244Z,-0.80
2022-12-08T01:24:20.597Z,-0.85
2022-12-08T01:26:51.370Z,-0.81
2022-12-08T01:29:19.273Z,-0.81
2022-12-08T01:31:46.941Z,-0.82
2022-12-08T01:34:14.825Z,-0.84
2022-12-08T01:36:44.330Z,-0.87
2022-12-08T01:39:19.007Z,-0.85
2022-12-08T01:41:47.811Z,-0.86
2022-12-08T01:44:15.493Z,-0.86
2022-12-08T01:46:45.949Z,-0.84
2022-12-08T01:49:32.062Z,-0.80
2022-12-08T01:52:16.288Z,-0.76
2022-12-08T01:54:52.420Z,-0.71
2022-12-08T01:57:45.035Z,-0.68
2022-12-08T02:00:18.233Z,-0.65
2022-12-08T02:03:03.948Z,-0.66
2022-12-08T02:05:36.408Z,-0.65
2022-12-08T02:08:10.123Z,-0.64
2022-12-08T02:10:42.561Z,-0.63
2022-12-08T02:13:16.283Z,-0.65
2022-12-08T02:16:09.075Z,-0.65
2022-12-08T02:19:14.705Z,-0.64
2022-12-08T02:22:07.315Z,-0.63
2022-12-08T02:24:51.753Z,-0.64
2022-12-08T02:27:41.778Z,-0.65
2022-12-08T02:30:30.697Z,-0.65
2022-12-08T02:33:25.873Z,-0.64
2022-12-08T02:36:02.204Z,-0.63
2022-12-08T02:38:55.364Z,-0.62
2022-12-08T02:41:48.096Z,-0.65
2022-12-08T02:44:31.471Z,-0.67
2022-12-08T02:47:13.572Z,-0.71
2022-12-08T02:49:41.767Z,-0.73
2022-12-08T02:52:12.519Z,-0.74
2022-12-08T02:54:45.857Z,-0.72
2022-12-08T02:57:54.789Z,-0.72
2022-12-08T03:00:27.184Z,-0.75
2022-12-08T03:03:21.027Z,-0.79
2022-12-08T03:06:13.224Z,-0.82
2022-12-08T03:08:58.677Z,-0.82
2022-12-08T03:11:43.360Z,-0.84
2022-12-08T03:14:17.641Z,-0.83
2022-12-08T03:16:55.128Z,-0.84
2022-12-08T03:19:34.380Z,-0.83
2022-12-08T03:22:05.965Z,-0.82
2022-12-08T03:24:42.949Z,-0.79
2022-12-08T03:27:28.085Z,-0.75
2022-12-08T03:30:00.243Z,-0.73
2022-12-08T03:32:58.959Z,-0.76
2022-12-08T03:35:31.706Z,-0.81
2022-12-08T03:38:13.120Z,-0.82
2022-12-08T03:40:41.984Z,-0.85
2022-12-08T03:43:10.273Z,-0.87
2022-12-08T03:45:37.987Z,-0.89
2022-12-08T03:48:06.410Z,-0.92
2022-12-08T03:50:34.180Z,-0.94
2022-12-08T03:53:01.889Z,-0.94
2022-12-08T03:55:29.541Z,-0.95
2022-12-08T03:57:57.212Z,-0.98
2022-12-08T04:00:25.074Z,-0.99
2022-12-08T04:02:52.866Z,-1.01
2022-12-08T04:05:20.923Z,-1.03
2022-12-08T04:07:48.651Z,-1.05
2022-12-08T04:10:16.588Z,-1.04
2022-12-08T04:12:44.280Z,-1.02
2022-12-08T04:15:11.924Z,-1.01
2022-12-08T04:17:39.599Z,-0.99
2022-12-08T04:20:07.721Z,-0.97
2022-12-08T04:22:35.710Z,-0.94
2022-12-08T04:25:03.707Z,-0.94
2022-12-08T04:27:31.398Z,-0.95
2022-12-08T04:29:59.130Z,-0.96
2022-12-08T04:32:26.780Z,-0.95
2022-12-08T04:34:54.466Z,-0.95
2022-12-08T04:37:22.255Z,-0.95
2022-12-08T04:39:49.922Z,-0.95
2022-12-08T04:42:17.564Z,-0.93
2022-12-08T04:44:45.197Z,-0.94
2022-12-08T04:47:13.272Z,-0.96
2022-12-08T04:49:41.586Z,-0.97
2022-12-08T04:52:09.884Z,-0.95
2022-12-08T04:54:37.767Z,-0.95
2022-12-08T04:57:05.522Z,-0.93
2022-12-08T04:59:33.492Z,-0.93
2022-12-08T05:02:01.303Z,-0.92
2022-12-08T05:04:29.130Z,-0.93
2022-12-08T05:06:57.051Z,-0.95
2022-12-08T05:09:25.177Z,-0.95
2022-12-08T05:11:52.822Z,-0.96
2022-12-08T05:14:20.513Z,-0.97
2022-12-08T05:16:48.546Z,-0.96
2022-12-08T05:19:17.152Z,-0.96
2022-12-08T05:21:45.432Z,-0.95
2022-12-08T05:24:13.184Z,-0.94
2022-12-08T05:26:40.996Z,-0.97
2022-12-08T05:29:08.700Z,-0.96
2022-12-08T05:31:36.406Z,-0.96
2022-12-08T05:34:04.153Z,-0.94
2022-12-08T05:36:31.902Z,-0.98
2022-12-08T05:38:59.590Z,-1.01
2022-12-08T05:41:27.303Z,-1.03
2022-12-08T05:43:55.040Z,-1.08
2022-12-08T05:46:23.155Z,-1.11
2022-12-08T05:48:51.073Z,-1.10
2022-12-08T05:51:24.144Z,-1.08
2022-12-08T05:53:53.690Z,-1.08
2022-12-08T05:56:22.777Z,-1.07
2022-12-08T05:58:51.204Z,-1.08
2022-12-08T06:01:25.870Z,-1.02
2022-12-08T06:03:54.538Z,-1.02
2022-12-08T06:06:22.808Z,-1.05
2022-12-08T06:08:51.232Z,-1.06
2022-12-08T06:11:25.997Z,-1.10
2022-12-08T06:13:55.985Z,-1.16
2022-12-08T06:16:26.304Z,-1.14
2022-12-08T06:18:54.864Z,-1.10
2022-12-08T06:21:22.669Z,-1.14
2022-12-08T06:23:53.482Z,-1.15
2022-12-08T06:26:22.353Z,-1.24
2022-12-08T06:28:52.080Z,-1.31
2022-12-08T06:31:26.446Z,-1.37
2022-12-08T06:33:55.564Z,-1.32
2022-12-08T06:36:26.553Z,-1.29
2022-12-08T06:38:54.578Z,-1.26
2022-12-08T06:41:22.365Z,-1.22
2022-12-08T06:43:50.320Z,-1.27
2022-12-08T06:46:20.297Z,-1.28
2022-12-08T06:48:50.426Z,-1.23
2022-12-08T06:51:22.759Z,-1.16
2022-12-08T06:53:50.620Z,-1.14
2022-12-08T06:56:20.101Z,-1.17
2022-12-08T06:58:52.472Z,-1.18
2022-12-08T07:01:21.502Z,-1.24
2022-12-08T07:03:49.367Z,-1.27
2022-12-08T07:06:23.841Z,-1.24
2022-12-08T07:08:52.605Z,-1.20
2022-12-08T07:11:22.358Z,-1.23
2022-12-08T07:13:50.997Z,-1.21
2022-12-08T07:16:19.619Z,-1.22
2022-12-08T07:18:47.459Z,-1.27
2022-12-08T07:21:17.295Z,-1.37
2022-12-08T07:23:54.234Z,-1.45
2022-12-08T07:26:23.925Z,-1.45
2022-12-08T07:28:51.642Z,-1.46
2022-12-08T07:31:23.500Z,-1.48
2022-12-08T07:33:52.755Z,-1.48
2022-12-08T07:36:21.233Z,-1.50
2022-12-08T07:38:50.201Z,-1.48
2022-12-08T07:41:23.653Z,-1.41
2022-12-08T07:43:53.731Z,-1.38
2022-12-08T07:46:25.026Z,-1.33
2022-12-08T07:48:55.004Z,-1.35
2022-12-08T07:51:24.944Z,-1.30
2022-12-08T07:53:54.780Z,-1.29
2022-12-08T07:56:23.460Z,-1.26
2022-12-08T07:58:51.418Z,-1.24
2022-12-08T08:01:22.011Z,-1.36
2022-12-08T08:03:50.297Z,-1.40
2022-12-08T08:07:09.353Z,-1.38
2022-12-08T08:09:37.397Z,-1.39
2022-12-08T08:12:29.595Z,-1.38
2022-12-08T08:14:53.343Z,-1.35
2022-12-08T08:17:21.217Z,-1.46
2022-12-08T08:19:49.169Z,-1.50
2022-12-08T08:22:16.847Z,-1.50
2022-12-08T08:24:45.321Z,-1.54
2022-12-08T08:27:13.997Z,-1.50
2022-12-08T08:29:41.693Z,-1.46
2022-12-08T08:32:09.481Z,-1.44
2022-12-08T08:34:37.715Z,-1.36
2022-12-08T08:37:05.530Z,-1.30
2022-12-08T08:39:33.251Z,-1.29
2022-12-08T08:42:00.970Z,-1.31
2022-12-08T08:44:28.871Z,-1.39
2022-12-08T08:46:56.692Z,-1.41
2022-12-08T08:49:24.411Z,-1.41
2022-12-08T08:51:52.566Z,-1.42
2022-12-08T08:54:20.224Z,-1.41
2022-12-08T08:56:48.398Z,-1.35
2022-12-08T08:59:16.173Z,-1.31
2022-12-08T09:01:43.981Z,-1.25
2022-12-08T09:04:11.875Z,-1.19
2022-12-08T09:06:39.891Z,-1.12
2022-12-08T09:09:07.673Z,-1.03
2022-12-08T09:11:35.428Z,-0.95
2022-12-08T09:14:03.557Z,-0.88
2022-12-08T09:16:32.177Z,-0.81
2022-12-08T09:19:02.384Z,-0.74
2022-12-08T09:21:30.208Z,-0.70
2022-12-08T09:23:59.579Z,-0.65
2022-12-08T09:26:28.772Z,-0.56
2022-12-08T09:28:58.051Z,-0.46
2022-12-08T09:31:26.286Z,-0.37
2022-12-08T09:33:55.191Z,-0.31
2022-12-08T09:36:23.273Z,-0.26
2022-12-08T09:38:53.623Z,-0.25
2022-12-08T09:41:49.872Z,-0.19
2022-12-08T09:44:38.907Z,-0.14
2022-12-08T09:47:33.767Z,-0.11
2022-12-08T09:50:23.796Z,-0.03
2022-12-08T09:53:21.148Z,0.03
2022-12-08T09:56:04.302Z,0.07
2022-12-08T09:58:52.770Z,0.08
2022-12-08T10:01:23.181Z,0.17
2022-12-08T10:03:54.732Z,0.23
2022-12-08T10:06:34.525Z,0.27
2022-12-08T10:09:24.346Z,0.37
2022-12-08T10:12:41.260Z,0.41
2022-12-08T10:16:06.730Z,0.45
2022-12-08T10:18:35.164Z,0.47
2022-12-08T10:21:22.901Z,0.49
2022-12-08T10:23:58.570Z,0.52
2022-12-08T10:26:26.642Z,0.57
2022-12-08T10:29:01.103Z,0.62
2022-12-08T10:31:32.371Z,0.66
2022-12-08T10:34:10.393Z,0.72
2022-12-08T10:36:49.707Z,0.80
2022-12-08T10:39:39.574Z,0.85
2022-12-08T10:42:13.484Z,0.89
2022-12-08T10:45:21.233Z,0.92
2022-12-08T10:48:05.073Z,1.04
2022-12-08T10:50:45.081Z,1.13
2022-12-08T10:53:19.748Z,1.18
2022-12-08T10:55:53.108Z,1.23
2022-12-08T10:58:45.595Z,1.30
2022-12-08T11:01:28.322Z,1.31
2022-12-08T11:04:03.133Z,1.31
2022-12-08T11:06:36.469Z,1.37
2022-12-08T11:09:30.862Z,1.42
2022-12-08T11:12:14.986Z,1.43
2022-12-08T11:14:42.859Z,1.45
2022-12-08T11:17:14.653Z,1.52
2022-12-08T11:19:55.792Z,1.62
2022-12-08T11:22:51.349Z,1.65
2022-12-08T11:25:27.413Z,1.70
2022-12-08T11:28:01.369Z,1.72
2022-12-08T11:30:38.993Z,1.74
2022-12-08T11:33:19.450Z,1.75
2022-12-08T11:35:55.543Z,1.74
2022-12-08T11:38:26.730Z,1.77
2022-12-08T11:40:59.917Z,1.80
2022-12-08T11:43:33.437Z,1.83
2022-12-08T11:46:14.119Z,1.85
2022-12-08T11:48:47.460Z,1.88
2022-12-08T11:51:32.991Z,1.85
2022-12-08T11:54:36.754Z,1.86
2022-12-08T11:57:11.820Z,1.87
2022-12-08T11:59:49.548Z,1.88
2022-12-08T12:02:32.176Z,1.89
2022-12-08T12:05:09.197Z,1.89
2022-12-08T12:08:21.145Z,1.91
2022-12-08T12:11:03.832Z,1.93
2022-12-08T12:13:52.287Z,1.98
2022-12-08T12:17:02.876Z,2.01
2022-12-08T12:19:37.681Z,2.05
2022-12-08T12:22:17.773Z,2.05
2022-12-08T12:24:51.729Z,2.08
2022-12-08T12:27:39.836Z,2.14
2022-12-08T12:30:23.476Z,2.21
2022-12-08T12:33:01.090Z,2.29
2022-12-08T12:35:35.935Z,2.30
2022-12-08T12:38:36.470Z,2.34
2022-12-08T12:41:07.991Z,2.41
2022-12-08T12:43:37.766Z,2.45
2022-12-08T12:46:24.470Z,2.49
2022-12-08T12:48:52.336Z,2.54
2022-12-08T12:51:39.024Z,2.58
2022-12-08T12:54:28.433Z,2.66
2022-12-08T12:57:09.512Z,2.68
2022-12-08T13:00:03.406Z,2.67
2022-12-08T13:02:38.439Z,2.63
2022-12-08T13:05:19.012Z,2.62
2022-12-08T13:08:06.666Z,2.61
2022-12-08T13:10:48.614Z,2.61
2022-12-08T13:13:19.137Z,2.62
2022-12-08T13:15:54.795Z,2.60
2022-12-08T13:18:40.308Z,2.59
2022-12-08T13:21:16.459Z,2.61
2022-12-08T13:24:14.362Z,2.65
2022-12-08T13:27:11.265Z,2.69
2022-12-08T13:29:39.575Z,2.71
2022-12-08T13:32:07.194Z,2.70
2022-12-08T13:34:50.623Z,2.71
2022-12-08T13:37:54.790Z,2.74
2022-12-08T13:40:30.114Z,2.79
2022-12-08T13:43:48.407Z,2.84
2022-12-08T13:59:24.908Z,2.79
2022-12-08T14:01:52.694Z,2.78
2022-12-08T14:04:53.972Z,2.78
2022-12-08T14:07:12.741Z,2.79
2022-12-08T14:09:42.580Z,2.78
2022-12-08T14:12:37.253Z,2.77
2022-12-08T14:15:07.481Z,2.79
2022-12-08T14:17:35.130Z,2.79
2022-12-08T14:20:12.243Z,2.79
2022-12-08T14:22:41.536Z,2.78
2022-12-08T14:25:15.638Z,2.76
2022-12-08T14:27:43.988Z,2.77
2022-12-08T14:30:24.583Z,2.76
2022-12-08T14:32:59.628Z,2.77
2022-12-08T14:35:30.113Z,2.75
2022-12-08T14:38:12.120Z,2.71
2022-12-08T14:40:49.939Z,2.71
2022-12-08T14:43:25.709Z,2.71
2022-12-08T14:46:01.661Z,2.66
2022-12-08T14:48:38.470Z,2.59
2022-12-08T14:51:21.578Z,2.54
2022-12-08T14:54:17.920Z,2.51
2022-12-08T14:56:55.432Z,2.48
2022-12-08T14:59:30.450Z,2.45
2022-12-08T15:02:28.115Z,2.44
2022-12-08T15:05:01.700Z,2.42
2022-12-08T15:07:44.844Z,2.37
2022-12-08T15:10:15.736Z,2.29
2022-12-08T15:13:26.526Z,2.23
2022-12-08T15:15:57.848Z,2.21
2022-12-08T15:18:39.215Z,2.18
2022-12-08T15:21:12.817Z,2.09
2022-12-08T15:23:48.945Z,2.04
2022-12-08T15:26:23.045Z,1.94
2022-12-08T15:28:51.063Z,1.89
2022-12-08T15:31:19.642Z,1.84
2022-12-08T15:33:48.036Z,1.75
2022-12-08T15:36:15.755Z,1.70
2022-12-08T15:38:43.788Z,1.64
2022-12-08T15:41:14.929Z,1.58
2022-12-08T15:43:43.130Z,1.51
2022-12-08T15:46:12.089Z,1.44
2022-12-08T15:48:39.825Z,1.41
2022-12-08T15:51:07.691Z,1.37
2022-12-08T15:53:35.355Z,1.32
2022-12-08T15:58:57.649Z,1.21
2022-12-08T16:01:26.958Z,1.16
2022-12-08T16:04:59.815Z,1.15
2022-12-08T16:07:20.687Z,1.22
2022-12-08T16:09:43.261Z,1.22
2022-12-08T16:18:26.726Z,0.91
2022-12-08T16:21:31.523Z,0.83
2022-12-08T16:23:44.663Z,0.70
2022-12-08T16:26:43.997Z,0.57
2022-12-08T16:29:06.782Z,0.52
2022-12-08T16:31:35.136Z,0.43
2022-12-08T16:34:02.891Z,0.34
2022-12-08T16:36:30.621Z,0.27
2022-12-08T16:38:58.405Z,0.24
2022-12-08T16:41:44.721Z,0.17
2022-12-08T16:44:12.487Z,0.12
2022-12-08T16:46:40.522Z,0.08
2022-12-08T16:49:09.732Z,0.04
2022-12-08T16:51:37.681Z,-0.06
2022-12-08T16:54:05.468Z,-0.12
2022-12-08T16:56:33.825Z,-0.16
2022-12-08T16:59:02.528Z,-0.23
2022-12-08T17:01:31.613Z,-0.24
2022-12-08T17:04:30.945Z,-0.26
2022-12-08T17:06:47.969Z,-0.36
2022-12-08T17:09:15.666Z,-0.36
2022-12-08T17:11:44.060Z,-0.41
2022-12-08T17:14:13.929Z,-0.45
2022-12-08T17:16:43.101Z,-0.48
2022-12-08T17:19:15.181Z,-0.54
2022-12-08T17:21:44.605Z,-0.55
2022-12-08T17:24:14.706Z,-0.59
2022-12-08T17:26:44.915Z,-0.63
2022-12-08T17:29:12.725Z,-0.52
2022-12-08T17:31:40.502Z,-0.47
2022-12-08T17:34:10.329Z,-0.50
2022-12-08T17:36:38.157Z,-0.45
2022-12-08T17:39:12.020Z,-0.52
2022-12-08T17:41:42.835Z,-0.50
2022-12-08T17:44:13.703Z,-0.53
2022-12-08T17:46:46.360Z,-0.50
2022-12-08T17:49:22.621Z,-0.51
2022-12-08T17:51:55.128Z,-0.54
2022-12-08T17:54:23.210Z,-0.62
2022-12-08T17:56:51.931Z,-0.59
2022-12-08T17:59:19.822Z,-0.65
2022-12-08T18:01:47.918Z,-0.76
2022-12-08T18:04:15.727Z,-0.79
2022-12-08T18:06:43.466Z,-0.77
2022-12-08T18:09:11.464Z,-0.77
2022-12-08T18:11:39.330Z,-0.79
2022-12-08T18:14:10.042Z,-0.76
2022-12-08T18:16:41.063Z,-0.77
2022-12-08T18:19:10.031Z,-0.84
2022-12-08T18:21:38.268Z,-0.89
2022-12-08T18:24:07.751Z,-0.96
2022-12-08T18:26:36.013Z,-0.96
2022-12-08T18:29:03.748Z,-0.93
2022-12-08T18:31:31.561Z,-0.98
2022-12-08T18:33:59.613Z,-1.03
2022-12-08T18:36:27.471Z,-1.06
2022-12-08T18:38:55.466Z,-1.11
2022-12-08T18:41:28.418Z,-1.22
2022-12-08T18:43:57.365Z,-1.33
2022-12-08T18:46:25.829Z,-1.42
2022-12-08T18:48:53.837Z,-1.36
2022-12-08T18:51:24.319Z,-1.38
2022-12-08T18:53:53.397Z,-1.42
2022-12-08T18:56:27.046Z,-1.42
2022-12-08T18:59:02.973Z,-1.46
2022-12-08T19:01:33.992Z,-1.49
2022-12-08T19:06:54.047Z,-1.49
2022-12-08T19:09:22.609Z,-1.42
2022-12-08T19:11:50.421Z,-1.48
2022-12-08T19:14:21.391Z,-1.49
2022-12-08T19:16:53.601Z,-1.58
2022-12-08T19:19:21.614Z,-1.53
2022-12-08T19:21:49.694Z,-1.53
2022-12-08T19:24:17.581Z,-1.58
2022-12-08T19:26:45.521Z,-1.56
2022-12-08T19:29:13.929Z,-1.56
2022-12-08T19:31:42.207Z,-1.60
2022-12-08T19:34:13.458Z,-1.68
2022-12-08T19:36:42.975Z,-1.79
2022-12-08T19:39:42.545Z,-1.86
2022-12-08T19:42:40.180Z,-1.92
2022-12-08T19:45:15.235Z,-1.89
2022-12-08T19:47:43.727Z,-1.92
2022-12-08T19:50:34.236Z,-1.97
2022-12-08T19:53:09.467Z,-1.95
2022-12-08T19:55:38.107Z,-2.00
2022-12-08T19:58:08.042Z,-2.01
2022-12-08T20:00:39.525Z,-1.99
2022-12-08T20:03:07.277Z,-2.01
2022-12-08T20:05:37.279Z,-1.97
2022-12-08T20:08:05.717Z,-1.94
2022-12-08T20:10:38.428Z,-1.87
2022-12-08T20:13:26.300Z,-1.84
2022-12-08T20:15:54.514Z,-1.90
2022-12-08T20:18:22.629Z,-1.97
2022-12-08T20:20:50.377Z,-1.97
2022-12-08T20:23:18.419Z,-1.92
2022-12-08T20:25:47.879Z,-1.86
2022-12-08T20:28:15.874Z,-1.79
2022-12-08T20:30:46.797Z,-1.76
2022-12-08T20:33:17.347Z,-1.74
2022-12-08T20:35:59.129Z,-1.68
2022-12-08T20:38:31.858Z,-1.62
2022-12-08T20:41:00.025Z,-1.56
2022-12-08T20:43:30.944Z,-1.51
2022-12-08T20:45:58.934Z,-1.49
2022-12-08T20:48:27.329Z,-1.46
2022-12-08T20:50:55.159Z,-1.44
2022-12-08T20:53:23.465Z,-1.47
2022-12-08T20:55:51.847Z,-1.43
2022-12-08T20:58:19.952Z,-1.40
2022-12-08T21:00:48.085Z,-1.43
2022-12-08T21:03:17.577Z,-1.42
2022-12-08T21:05:51.395Z,-1.42
2022-12-08T21:08:19.881Z,-1.39
2022-12-08T21:10:55.399Z,-1.40
2022-12-08T21:13:23.634Z,-1.38
2022-12-08T21:15:51.993Z,-1.36
2022-12-08T21:18:20.201Z,-1.32
2022-12-08T21:20:48.656Z,-1.30
2022-12-08T21:23:17.707Z,-1.25
2022-12-08T21:25:47.340Z,-1.26
2022-12-08T21:28:15.464Z,-1.27
2022-12-08T21:30:43.575Z,-1.24
2022-12-08T21:33:11.615Z,-1.25
2022-12-08T21:35:39.764Z,-1.31
2022-12-08T21:38:08.635Z,-1.42
2022-12-08T21:40:36.809Z,-1.47
2022-12-08T21:43:04.861Z,-1.46
2022-12-08T21:45:34.326Z,-1.44
2022-12-08T21:48:10.343Z,-1.47
2022-12-08T21:50:39.452Z,-1.55
2022-12-08T21:53:07.405Z,-1.59
2022-12-08T21:55:35.345Z,-1.59
2022-12-08T21:58:03.376Z,-1.56
2022-12-08T22:00:31.852Z,-1.58
2022-12-08T22:02:59.902Z,-1.58
2022-12-08T22:05:27.997Z,-1.59
2022-12-08T22:07:56.057Z,-1.58
2022-12-08T22:10:24.407Z,-1.61
2022-12-08T22:12:52.317Z,-1.62
2022-12-08T22:15:20.175Z,-1.58
2022-12-08T22:17:48.089Z,-1.64
2022-12-08T22:20:16.342Z,-1.63
2022-12-08T22:22:44.347Z,-1.59
2022-12-08T22:25:12.578Z,-1.52
2022-12-08T22:27:41.148Z,-1.50
2022-12-08T22:30:10.848Z,-1.46
2022-12-08T22:32:39.500Z,-1.44
2022-12-08T22:35:08.036Z,-1.44
2022-12-08T22:37:36.267Z,-1.51
2022-12-08T22:40:06.261Z,-1.60
2022-12-08T22:42:34.137Z,-1.65
2022-12-08T22:45:01.972Z,-1.76
2022-12-08T22:47:29.895Z,-1.77
2022-12-08T22:49:57.665Z,-1.72
2022-12-08T22:52:25.482Z,-1.64
2022-12-08T22:54:53.361Z,-1.65
2022-12-08T22:57:21.068Z,-1.69
2022-12-08T22:59:48.983Z,-1.68
2022-12-08T23:02:16.772Z,-1.73
2022-12-08T23:04:46.534Z,-1.70
2022-12-08T23:07:14.920Z,-1.72
2022-12-08T23:09:43.562Z,-1.80
2022-12-08T23:12:11.308Z,-1.85
2022-12-08T23:14:39.075Z,-1.82
2022-12-08T23:17:07.030Z,-1.86
2022-12-08T23:19:39.152Z,-1.88
2022-12-08T23:22:07.116Z,-1.94
2022-12-08T23:24:34.954Z,-1.99
2022-12-08T23:27:02.697Z,-2.05
2022-12-08T23:29:30.714Z,-2.10
2022-12-08T23:31:58.624Z,-2.11
2022-12-08T23:34:27.134Z,-2.11
2022-12-08T23:36:54.867Z,-2.12
2022-12-08T23:39:24.702Z,-2.05
2022-12-08T23:41:52.813Z,-2.00
2022-12-08T23:44:21.164Z,-1.99
2022-12-08T23:46:49.101Z,-1.90
2022-12-08T23:49:17.010Z,-1.90
2022-12-08T23:51:44.669Z,-1.91
2022-12-08T23:54:12.590Z,-1.88
2022-12-08T23:56:40.512Z,-1.85
2022-12-08T23:59:08.562Z,-1.83
